sensor_id;sensor_type;location;lat;lon;timestamp;P1;durP1;ratioP1;P2;durP2;ratioP2
49412;SDS011;35493;50.276;9.372;2022-07-06T00:01:47;6.53;;;2.28;;
49412;SDS011;35493;50.276;9.372;2022-07-06T00:04:16;6.88;;;2.72;;
49412;SDS011;35493;50.276;9.372;2022-07-06T00:06:43;3.53;;;2.05;;
49412;SDS011;35493;50.276;9.372;2022-07-06T00:09:10;6.32;;;2.13;;
49412;SDS011;35493;50.276;9.372;2022-07-06T00:11:37;5.03;;;2.33;;
49412;SDS011;35493;50.276;9.372;2022-07-06T00:14:05;4.18;;;2.33;;
49412;SDS011;35493;50.276;9.372;2022-07-06T00:16:32;7.32;;;1.90;;
49412;SDS011;35493;50.276;9.372;2022-07-06T00:18:59;3.08;;;1.33;;
49412;SDS011;35493;50.276;9.372;2022-07-06T00:21:26;3.85;;;1.63;;
49412;SDS011;35493;50.276;9.372;2022-07-06T00:23:53;5.65;;;1.92;;
49412;SDS011;35493;50.276;9.372;2022-07-06T00:26:20;2.40;;;1.27;;
49412;SDS011;35493;50.276;9.372;2022-07-06T00:28:47;2.17;;;1.40;;
49412;SDS011;35493;50.276;9.372;2022-07-06T00:31:15;2.55;;;1.55;;
49412;SDS011;35493;50.276;9.372;2022-07-06T00:33:42;2.33;;;1.38;;
49412;SDS011;35493;50.276;9.372;2022-07-06T00:36:09;3.67;;;1.48;;
49412;SDS011;35493;50.276;9.372;2022-07-06T00:38:36;5.95;;;1.50;;
49412;SDS011;35493;50.276;9.372;2022-07-06T00:41:03;1.80;;;1.20;;
49412;SDS011;35493;50.276;9.372;2022-07-06T00:43:45;2.83;;;1.20;;
49412;SDS011;35493;50.276;9.372;2022-07-06T00:46:13;2.75;;;1.50;;
49412;SDS011;35493;50.276;9.372;2022-07-06T00:48:41;2.88;;;1.40;;
49412;SDS011;35493;50.276;9.372;2022-07-06T00:51:08;4.00;;;1.17;;
49412;SDS011;35493;50.276;9.372;2022-07-06T00:53:37;2.70;;;1.40;;
49412;SDS011;35493;50.276;9.372;2022-07-06T00:56:04;2.92;;;1.10;;
49412;SDS011;35493;50.276;9.372;2022-07-06T00:58:32;2.65;;;1.23;;
49412;SDS011;35493;50.276;9.372;2022-07-06T01:00:59;2.42;;;1.33;;
49412;SDS011;35493;50.276;9.372;2022-07-06T01:03:29;2.22;;;1.33;;
49412;SDS011;35493;50.276;9.372;2022-07-06T01:05:57;2.00;;;1.13;;
49412;SDS011;35493;50.276;9.372;2022-07-06T01:08:24;2.35;;;1.42;;
49412;SDS011;35493;50.276;9.372;2022-07-06T01:10:51;1.88;;;1.27;;
49412;SDS011;35493;50.276;9.372;2022-07-06T01:13:18;3.38;;;1.27;;
49412;SDS011;35493;50.276;9.372;2022-07-06T01:15:45;3.85;;;1.33;;
49412;SDS011;35493;50.276;9.372;2022-07-06T01:18:12;1.92;;;1.30;;
49412;SDS011;35493;50.276;9.372;2022-07-06T01:20:41;2.20;;;1.35;;
49412;SDS011;35493;50.276;9.372;2022-07-06T01:23:08;2.78;;;1.00;;
49412;SDS011;35493;50.276;9.372;2022-07-06T01:25:35;4.45;;;1.35;;
49412;SDS011;35493;50.276;9.372;2022-07-06T01:28:02;3.17;;;1.15;;
49412;SDS011;35493;50.276;9.372;2022-07-06T01:30:30;2.55;;;1.45;;
49412;SDS011;35493;50.276;9.372;2022-07-06T01:32:56;1.90;;;1.00;;
49412;SDS011;35493;50.276;9.372;2022-07-06T01:35:23;2.33;;;1.23;;
49412;SDS011;35493;50.276;9.372;2022-07-06T01:37:53;11.85;;;1.60;;
49412;SDS011;35493;50.276;9.372;2022-07-06T01:40:20;1.92;;;1.10;;
49412;SDS011;35493;50.276;9.372;2022-07-06T01:42:47;3.67;;;1.42;;
49412;SDS011;35493;50.276;9.372;2022-07-06T01:45:14;3.78;;;1.35;;
49412;SDS011;35493;50.276;9.372;2022-07-06T01:47:41;1.85;;;1.00;;
49412;SDS011;35493;50.276;9.372;2022-07-06T01:50:09;2.22;;;1.10;;
49412;SDS011;35493;50.276;9.372;2022-07-06T01:52:40;2.63;;;1.27;;
49412;SDS011;35493;50.276;9.372;2022-07-06T01:55:09;1.60;;;0.93;;
49412;SDS011;35493;50.276;9.372;2022-07-06T01:57:37;1.70;;;0.98;;
49412;SDS011;35493;50.276;9.372;2022-07-06T02:00:05;2.08;;;1.10;;
49412;SDS011;35493;50.276;9.372;2022-07-06T02:02:37;1.33;;;0.85;;
49412;SDS011;35493;50.276;9.372;2022-07-06T02:05:07;4.40;;;1.00;;
49412;SDS011;35493;50.276;9.372;2022-07-06T02:07:34;3.28;;;1.00;;
49412;SDS011;35493;50.276;9.372;2022-07-06T02:10:02;3.08;;;1.20;;
49412;SDS011;35493;50.276;9.372;2022-07-06T02:12:31;3.50;;;1.33;;
49412;SDS011;35493;50.276;9.372;2022-07-06T02:14:58;3.63;;;1.20;;
49412;SDS011;35493;50.276;9.372;2022-07-06T02:17:25;2.40;;;1.25;;
49412;SDS011;35493;50.276;9.372;2022-07-06T02:19:52;1.70;;;0.90;;
49412;SDS011;35493;50.276;9.372;2022-07-06T02:22:20;5.22;;;1.15;;
49412;SDS011;35493;50.276;9.372;2022-07-06T02:24:47;2.83;;;1.05;;
49412;SDS011;35493;50.276;9.372;2022-07-06T02:27:14;2.30;;;1.30;;
49412;SDS011;35493;50.276;9.372;2022-07-06T02:29:42;2.33;;;1.00;;
49412;SDS011;35493;50.276;9.372;2022-07-06T02:32:09;1.90;;;0.98;;
49412;SDS011;35493;50.276;9.372;2022-07-06T02:34:36;1.88;;;1.17;;
49412;SDS011;35493;50.276;9.372;2022-07-06T02:37:03;1.45;;;0.90;;
49412;SDS011;35493;50.276;9.372;2022-07-06T02:39:30;5.13;;;1.25;;
49412;SDS011;35493;50.276;9.372;2022-07-06T02:41:57;2.58;;;1.02;;
49412;SDS011;35493;50.276;9.372;2022-07-06T02:44:24;2.33;;;1.15;;
49412;SDS011;35493;50.276;9.372;2022-07-06T02:46:53;2.00;;;1.00;;
49412;SDS011;35493;50.276;9.372;2022-07-06T02:49:21;4.38;;;1.17;;
49412;SDS011;35493;50.276;9.372;2022-07-06T02:51:48;3.20;;;1.00;;
49412;SDS011;35493;50.276;9.372;2022-07-06T02:54:15;3.47;;;1.25;;
49412;SDS011;35493;50.276;9.372;2022-07-06T02:56:42;1.77;;;1.00;;
49412;SDS011;35493;50.276;9.372;2022-07-06T02:59:10;3.90;;;1.02;;
49412;SDS011;35493;50.276;9.372;2022-07-06T03:01:36;4.78;;;1.30;;
49412;SDS011;35493;50.276;9.372;2022-07-06T03:04:05;3.50;;;1.10;;
49412;SDS011;35493;50.276;9.372;2022-07-06T03:06:32;3.83;;;1.42;;
49412;SDS011;35493;50.276;9.372;2022-07-06T03:08:59;1.73;;;1.08;;
49412;SDS011;35493;50.276;9.372;2022-07-06T03:11:27;5.03;;;1.40;;
49412;SDS011;35493;50.276;9.372;2022-07-06T03:13:54;3.03;;;0.95;;
49412;SDS011;35493;50.276;9.372;2022-07-06T03:16:21;1.20;;;0.85;;
49412;SDS011;35493;50.276;9.372;2022-07-06T03:18:49;2.00;;;0.95;;
49412;SDS011;35493;50.276;9.372;2022-07-06T03:21:17;5.45;;;1.08;;
49412;SDS011;35493;50.276;9.372;2022-07-06T03:23:44;2.03;;;1.15;;
49412;SDS011;35493;50.276;9.372;2022-07-06T03:26:11;2.28;;;1.20;;
49412;SDS011;35493;50.276;9.372;2022-07-06T03:28:38;2.95;;;1.10;;
49412;SDS011;35493;50.276;9.372;2022-07-06T03:31:05;0.82;;;0.75;;
49412;SDS011;35493;50.276;9.372;2022-07-06T03:33:33;2.38;;;1.15;;
49412;SDS011;35493;50.276;9.372;2022-07-06T03:36:00;1.67;;;1.10;;
49412;SDS011;35493;50.276;9.372;2022-07-06T03:38:29;4.85;;;1.42;;
49412;SDS011;35493;50.276;9.372;2022-07-06T03:40:57;3.50;;;1.30;;
49412;SDS011;35493;50.276;9.372;2022-07-06T03:43:24;4.30;;;1.30;;
49412;SDS011;35493;50.276;9.372;2022-07-06T03:45:52;2.00;;;1.13;;
49412;SDS011;35493;50.276;9.372;2022-07-06T03:48:20;3.10;;;1.20;;
49412;SDS011;35493;50.276;9.372;2022-07-06T03:50:47;3.58;;;1.27;;
49412;SDS011;35493;50.276;9.372;2022-07-06T03:53:15;1.50;;;0.90;;
49412;SDS011;35493;50.276;9.372;2022-07-06T03:55:43;1.80;;;1.10;;
49412;SDS011;35493;50.276;9.372;2022-07-06T03:58:31;2.85;;;1.20;;
49412;SDS011;35493;50.276;9.372;2022-07-06T04:00:58;2.45;;;1.40;;
49412;SDS011;35493;50.276;9.372;2022-07-06T04:03:25;2.42;;;1.20;;
49412;SDS011;35493;50.276;9.372;2022-07-06T04:05:52;3.67;;;1.20;;
49412;SDS011;35493;50.276;9.372;2022-07-06T04:08:20;6.22;;;1.33;;
49412;SDS011;35493;50.276;9.372;2022-07-06T04:10:53;1.55;;;0.90;;
49412;SDS011;35493;50.276;9.372;2022-07-06T04:13:21;2.28;;;1.00;;
49412;SDS011;35493;50.276;9.372;2022-07-06T04:15:49;5.00;;;1.20;;
49412;SDS011;35493;50.276;9.372;2022-07-06T04:18:16;1.58;;;1.10;;
49412;SDS011;35493;50.276;9.372;2022-07-06T04:20:48;3.65;;;1.10;;
49412;SDS011;35493;50.276;9.372;2022-07-06T04:23:15;3.30;;;1.20;;
49412;SDS011;35493;50.276;9.372;2022-07-06T04:25:43;4.93;;;1.30;;
49412;SDS011;35493;50.276;9.372;2022-07-06T04:28:12;2.78;;;1.30;;
49412;SDS011;35493;50.276;9.372;2022-07-06T04:30:39;1.95;;;1.17;;
49412;SDS011;35493;50.276;9.372;2022-07-06T04:33:09;3.17;;;1.80;;
49412;SDS011;35493;50.276;9.372;2022-07-06T04:35:37;3.47;;;1.33;;
49412;SDS011;35493;50.276;9.372;2022-07-06T04:38:05;1.92;;;1.10;;
49412;SDS011;35493;50.276;9.372;2022-07-06T04:40:32;3.72;;;1.10;;
49412;SDS011;35493;50.276;9.372;2022-07-06T04:43:04;3.13;;;1.33;;
49412;SDS011;35493;50.276;9.372;2022-07-06T04:45:33;1.63;;;0.90;;
49412;SDS011;35493;50.276;9.372;2022-07-06T04:48:00;3.50;;;1.05;;
49412;SDS011;35493;50.276;9.372;2022-07-06T04:50:27;4.85;;;1.10;;
49412;SDS011;35493;50.276;9.372;2022-07-06T04:52:58;3.30;;;1.17;;
49412;SDS011;35493;50.276;9.372;2022-07-06T04:55:26;3.75;;;0.90;;
49412;SDS011;35493;50.276;9.372;2022-07-06T04:57:53;1.67;;;0.98;;
49412;SDS011;35493;50.276;9.372;2022-07-06T05:00:22;2.65;;;1.17;;
49412;SDS011;35493;50.276;9.372;2022-07-06T05:02:51;1.85;;;1.30;;
49412;SDS011;35493;50.276;9.372;2022-07-06T05:07:49;3.50;;;1.20;;
49412;SDS011;35493;50.276;9.372;2022-07-06T05:10:16;2.20;;;1.10;;
49412;SDS011;35493;50.276;9.372;2022-07-06T05:12:46;3.58;;;1.10;;
49412;SDS011;35493;50.276;9.372;2022-07-06T05:15:14;3.17;;;1.30;;
49412;SDS011;35493;50.276;9.372;2022-07-06T05:17:42;2.03;;;1.10;;
49412;SDS011;35493;50.276;9.372;2022-07-06T05:20:10;2.17;;;1.02;;
49412;SDS011;35493;50.276;9.372;2022-07-06T05:22:41;2.92;;;1.20;;
49412;SDS011;35493;50.276;9.372;2022-07-06T05:25:08;4.80;;;1.00;;
49412;SDS011;35493;50.276;9.372;2022-07-06T05:27:35;2.28;;;1.27;;
49412;SDS011;35493;50.276;9.372;2022-07-06T05:30:04;3.30;;;1.30;;
49412;SDS011;35493;50.276;9.372;2022-07-06T05:32:32;3.30;;;1.40;;
49412;SDS011;35493;50.276;9.372;2022-07-06T05:34:59;4.00;;;1.38;;
49412;SDS011;35493;50.276;9.372;2022-07-06T05:37:29;2.05;;;1.23;;
49412;SDS011;35493;50.276;9.372;2022-07-06T05:39:56;2.22;;;1.17;;
49412;SDS011;35493;50.276;9.372;2022-07-06T05:42:24;2.58;;;1.30;;
49412;SDS011;35493;50.276;9.372;2022-07-06T05:44:54;2.40;;;1.20;;
49412;SDS011;35493;50.276;9.372;2022-07-06T05:50:06;2.15;;;1.00;;
49412;SDS011;35493;50.276;9.372;2022-07-06T05:52:57;3.83;;;1.67;;
49412;SDS011;35493;50.276;9.372;2022-07-06T05:55:27;2.90;;;1.30;;
49412;SDS011;35493;50.276;9.372;2022-07-06T05:57:56;2.00;;;1.30;;
49412;SDS011;35493;50.276;9.372;2022-07-06T06:00:26;2.17;;;1.30;;
49412;SDS011;35493;50.276;9.372;2022-07-06T06:02:57;5.32;;;1.30;;
49412;SDS011;35493;50.276;9.372;2022-07-06T06:05:25;2.20;;;1.00;;
49412;SDS011;35493;50.276;9.372;2022-07-06T06:07:58;3.80;;;1.20;;
49412;SDS011;35493;50.276;9.372;2022-07-06T06:10:25;5.15;;;1.30;;
49412;SDS011;35493;50.276;9.372;2022-07-06T06:12:56;2.00;;;1.20;;
49412;SDS011;35493;50.276;9.372;2022-07-06T06:15:23;3.38;;;1.13;;
49412;SDS011;35493;50.276;9.372;2022-07-06T06:17:50;2.10;;;1.00;;
49412;SDS011;35493;50.276;9.372;2022-07-06T06:20:17;2.25;;;1.40;;
49412;SDS011;35493;50.276;9.372;2022-07-06T06:22:45;3.88;;;1.15;;
49412;SDS011;35493;50.276;9.372;2022-07-06T06:25:15;2.70;;;1.00;;
49412;SDS011;35493;50.276;9.372;2022-07-06T06:27:42;5.80;;;1.20;;
49412;SDS011;35493;50.276;9.372;2022-07-06T06:30:10;2.40;;;0.80;;
49412;SDS011;35493;50.276;9.372;2022-07-06T06:32:38;4.70;;;1.13;;
49412;SDS011;35493;50.276;9.372;2022-07-06T06:35:05;2.08;;;0.93;;
49412;SDS011;35493;50.276;9.372;2022-07-06T06:37:33;4.15;;;0.90;;
49412;SDS011;35493;50.276;9.372;2022-07-06T06:40:00;2.10;;;1.00;;
49412;SDS011;35493;50.276;9.372;2022-07-06T06:42:28;4.72;;;0.70;;
49412;SDS011;35493;50.276;9.372;2022-07-06T06:44:57;3.17;;;1.33;;
49412;SDS011;35493;50.276;9.372;2022-07-06T06:47:24;1.45;;;0.75;;
49412;SDS011;35493;50.276;9.372;2022-07-06T06:49:51;2.53;;;0.60;;
49412;SDS011;35493;50.276;9.372;2022-07-06T06:52:18;2.42;;;0.90;;
49412;SDS011;35493;50.276;9.372;2022-07-06T06:54:45;2.28;;;0.80;;
49412;SDS011;35493;50.276;9.372;2022-07-06T06:57:12;2.08;;;1.08;;
49412;SDS011;35493;50.276;9.372;2022-07-06T06:59:40;2.72;;;0.77;;
49412;SDS011;35493;50.276;9.372;2022-07-06T07:02:07;1.58;;;0.70;;
49412;SDS011;35493;50.276;9.372;2022-07-06T07:04:34;2.55;;;0.68;;
49412;SDS011;35493;50.276;9.372;2022-07-06T07:07:01;2.03;;;0.90;;
49412;SDS011;35493;50.276;9.372;2022-07-06T07:09:27;2.72;;;0.60;;
49412;SDS011;35493;50.276;9.372;2022-07-06T07:11:54;1.73;;;0.75;;
49412;SDS011;35493;50.276;9.372;2022-07-06T07:14:22;2.70;;;0.75;;
49412;SDS011;35493;50.276;9.372;2022-07-06T07:16:51;4.93;;;0.98;;
49412;SDS011;35493;50.276;9.372;2022-07-06T07:19:18;3.45;;;0.80;;
49412;SDS011;35493;50.276;9.372;2022-07-06T07:21:45;1.67;;;0.60;;
49412;SDS011;35493;50.276;9.372;2022-07-06T07:24:11;2.97;;;0.80;;
49412;SDS011;35493;50.276;9.372;2022-07-06T07:26:38;3.75;;;1.60;;
49412;SDS011;35493;50.276;9.372;2022-07-06T07:29:05;5.50;;;2.13;;
49412;SDS011;35493;50.276;9.372;2022-07-06T07:31:32;5.10;;;2.00;;
49412;SDS011;35493;50.276;9.372;2022-07-06T07:34:00;3.83;;;1.45;;
49412;SDS011;35493;50.276;9.372;2022-07-06T07:36:27;5.22;;;1.55;;
49412;SDS011;35493;50.276;9.372;2022-07-06T07:38:54;3.15;;;1.45;;
49412;SDS011;35493;50.276;9.372;2022-07-06T07:41:21;4.72;;;1.75;;
49412;SDS011;35493;50.276;9.372;2022-07-06T07:43:48;3.67;;;1.20;;
49412;SDS011;35493;50.276;9.372;2022-07-06T07:46:15;6.65;;;1.75;;
49412;SDS011;35493;50.276;9.372;2022-07-06T07:48:42;2.88;;;1.00;;
49412;SDS011;35493;50.276;9.372;2022-07-06T07:51:11;2.53;;;1.15;;
49412;SDS011;35493;50.276;9.372;2022-07-06T07:53:39;2.97;;;0.70;;
49412;SDS011;35493;50.276;9.372;2022-07-06T07:56:06;2.83;;;0.88;;
49412;SDS011;35493;50.276;9.372;2022-07-06T07:58:33;3.45;;;0.85;;
49412;SDS011;35493;50.276;9.372;2022-07-06T08:01:00;3.20;;;1.08;;
49412;SDS011;35493;50.276;9.372;2022-07-06T08:03:28;2.35;;;0.80;;
49412;SDS011;35493;50.276;9.372;2022-07-06T08:05:55;3.42;;;1.38;;
49412;SDS011;35493;50.276;9.372;2022-07-06T08:08:23;2.45;;;0.93;;
49412;SDS011;35493;50.276;9.372;2022-07-06T08:10:50;3.95;;;1.38;;
49412;SDS011;35493;50.276;9.372;2022-07-06T08:13:17;2.58;;;0.90;;
49412;SDS011;35493;50.276;9.372;2022-07-06T08:15:43;4.35;;;0.80;;
49412;SDS011;35493;50.276;9.372;2022-07-06T08:18:11;1.60;;;0.93;;
49412;SDS011;35493;50.276;9.372;2022-07-06T08:20:38;3.13;;;1.15;;
49412;SDS011;35493;50.276;9.372;2022-07-06T08:23:04;3.58;;;0.73;;
49412;SDS011;35493;50.276;9.372;2022-07-06T08:25:33;1.90;;;0.90;;
49412;SDS011;35493;50.276;9.372;2022-07-06T08:28:00;2.20;;;0.80;;
49412;SDS011;35493;50.276;9.372;2022-07-06T08:30:27;1.92;;;0.85;;
49412;SDS011;35493;50.276;9.372;2022-07-06T08:32:56;3.40;;;0.90;;
49412;SDS011;35493;50.276;9.372;2022-07-06T08:35:23;3.47;;;0.75;;
49412;SDS011;35493;50.276;9.372;2022-07-06T08:37:50;2.78;;;0.80;;
49412;SDS011;35493;50.276;9.372;2022-07-06T08:40:17;3.67;;;1.20;;
49412;SDS011;35493;50.276;9.372;2022-07-06T08:42:45;2.42;;;0.82;;
49412;SDS011;35493;50.276;9.372;2022-07-06T08:45:19;2.30;;;1.08;;
49412;SDS011;35493;50.276;9.372;2022-07-06T08:47:46;2.75;;;1.15;;
49412;SDS011;35493;50.276;9.372;2022-07-06T08:50:15;1.35;;;1.00;;
49412;SDS011;35493;50.276;9.372;2022-07-06T08:52:43;2.88;;;1.00;;
49412;SDS011;35493;50.276;9.372;2022-07-06T08:55:10;4.35;;;1.05;;
49412;SDS011;35493;50.276;9.372;2022-07-06T08:57:38;4.07;;;1.15;;
49412;SDS011;35493;50.276;9.372;2022-07-06T09:00:07;2.10;;;1.10;;
49412;SDS011;35493;50.276;9.372;2022-07-06T09:02:35;3.40;;;1.48;;
49412;SDS011;35493;50.276;9.372;2022-07-06T09:05:03;5.60;;;1.33;;
49412;SDS011;35493;50.276;9.372;2022-07-06T09:07:31;5.55;;;1.50;;
49412;SDS011;35493;50.276;9.372;2022-07-06T09:09:58;3.25;;;1.00;;
49412;SDS011;35493;50.276;9.372;2022-07-06T09:12:26;2.83;;;1.17;;
49412;SDS011;35493;50.276;9.372;2022-07-06T09:14:54;2.38;;;1.10;;
49412;SDS011;35493;50.276;9.372;2022-07-06T09:17:25;5.25;;;1.60;;
49412;SDS011;35493;50.276;9.372;2022-07-06T09:19:52;2.47;;;1.23;;
49412;SDS011;35493;50.276;9.372;2022-07-06T09:22:27;2.50;;;1.30;;
49412;SDS011;35493;50.276;9.372;2022-07-06T09:25:03;3.65;;;1.25;;
49412;SDS011;35493;50.276;9.372;2022-07-06T09:27:31;1.90;;;1.45;;
49412;SDS011;35493;50.276;9.372;2022-07-06T09:30:02;3.53;;;1.10;;
49412;SDS011;35493;50.276;9.372;2022-07-06T09:32:32;2.13;;;1.25;;
49412;SDS011;35493;50.276;9.372;2022-07-06T09:35:04;6.60;;;1.20;;
49412;SDS011;35493;50.276;9.372;2022-07-06T09:37:32;2.95;;;1.02;;
49412;SDS011;35493;50.276;9.372;2022-07-06T09:39:59;5.82;;;1.20;;
49412;SDS011;35493;50.276;9.372;2022-07-06T09:42:26;4.60;;;1.10;;
49412;SDS011;35493;50.276;9.372;2022-07-06T09:44:54;2.28;;;1.02;;
49412;SDS011;35493;50.276;9.372;2022-07-06T09:47:21;1.23;;;1.00;;
49412;SDS011;35493;50.276;9.372;2022-07-06T09:49:49;3.42;;;1.20;;
49412;SDS011;35493;50.276;9.372;2022-07-06T09:52:21;2.63;;;1.02;;
49412;SDS011;35493;50.276;9.372;2022-07-06T09:54:49;5.15;;;1.15;;
49412;SDS011;35493;50.276;9.372;2022-07-06T09:57:16;3.58;;;0.95;;
49412;SDS011;35493;50.276;9.372;2022-07-06T09:59:43;2.78;;;0.98;;
49412;SDS011;35493;50.276;9.372;2022-07-06T10:02:17;2.90;;;1.13;;
49412;SDS011;35493;50.276;9.372;2022-07-06T10:04:47;2.40;;;0.75;;
49412;SDS011;35493;50.276;9.372;2022-07-06T10:07:18;1.33;;;0.70;;
49412;SDS011;35493;50.276;9.372;2022-07-06T10:09:46;0.93;;;0.75;;
49412;SDS011;35493;50.276;9.372;2022-07-06T10:12:14;1.25;;;0.75;;
49412;SDS011;35493;50.276;9.372;2022-07-06T10:14:43;1.35;;;0.80;;
49412;SDS011;35493;50.276;9.372;2022-07-06T10:17:11;1.88;;;1.00;;
49412;SDS011;35493;50.276;9.372;2022-07-06T10:19:39;3.92;;;1.73;;
49412;SDS011;35493;50.276;9.372;2022-07-06T10:22:08;3.55;;;1.45;;
49412;SDS011;35493;50.276;9.372;2022-07-06T10:24:37;3.60;;;1.10;;
49412;SDS011;35493;50.276;9.372;2022-07-06T10:27:08;3.28;;;1.40;;
49412;SDS011;35493;50.276;9.372;2022-07-06T10:29:36;2.83;;;1.10;;
49412;SDS011;35493;50.276;9.372;2022-07-06T10:32:04;3.35;;;1.48;;
49412;SDS011;35493;50.276;9.372;2022-07-06T10:34:33;3.70;;;1.27;;
49412;SDS011;35493;50.276;9.372;2022-07-06T10:37:01;1.97;;;1.10;;
49412;SDS011;35493;50.276;9.372;2022-07-06T10:39:34;3.45;;;1.17;;
49412;SDS011;35493;50.276;9.372;2022-07-06T10:45:08;3.33;;;1.00;;
49412;SDS011;35493;50.276;9.372;2022-07-06T10:47:37;2.60;;;1.25;;
49412;SDS011;35493;50.276;9.372;2022-07-06T10:50:04;1.75;;;0.90;;
49412;SDS011;35493;50.276;9.372;2022-07-06T10:52:50;2.60;;;1.00;;
49412;SDS011;35493;50.276;9.372;2022-07-06T10:58:05;2.28;;;0.85;;
49412;SDS011;35493;50.276;9.372;2022-07-06T11:00:42;3.47;;;1.08;;
49412;SDS011;35493;50.276;9.372;2022-07-06T11:03:34;1.88;;;0.80;;
49412;SDS011;35493;50.276;9.372;2022-07-06T11:06:05;1.10;;;0.75;;
49412;SDS011;35493;50.276;9.372;2022-07-06T11:08:46;4.38;;;0.88;;
49412;SDS011;35493;50.276;9.372;2022-07-06T11:11:19;3.28;;;0.73;;
49412;SDS011;35493;50.276;9.372;2022-07-06T11:13:59;2.58;;;0.60;;
49412;SDS011;35493;50.276;9.372;2022-07-06T11:16:28;4.57;;;0.70;;
49412;SDS011;35493;50.276;9.372;2022-07-06T11:19:06;0.75;;;0.60;;
49412;SDS011;35493;50.276;9.372;2022-07-06T11:21:35;4.75;;;0.70;;
49412;SDS011;35493;50.276;9.372;2022-07-06T11:24:05;1.05;;;0.60;;
49412;SDS011;35493;50.276;9.372;2022-07-06T11:26:35;1.05;;;0.63;;
49412;SDS011;35493;50.276;9.372;2022-07-06T11:29:03;2.58;;;0.70;;
49412;SDS011;35493;50.276;9.372;2022-07-06T11:31:35;3.88;;;1.35;;
49412;SDS011;35493;50.276;9.372;2022-07-06T11:34:03;1.25;;;0.52;;
49412;SDS011;35493;50.276;9.372;2022-07-06T11:36:32;1.58;;;0.70;;
49412;SDS011;35493;50.276;9.372;2022-07-06T11:38:59;1.50;;;0.75;;
49412;SDS011;35493;50.276;9.372;2022-07-06T11:41:26;2.80;;;0.98;;
49412;SDS011;35493;50.276;9.372;2022-07-06T11:43:55;4.97;;;0.88;;
49412;SDS011;35493;50.276;9.372;2022-07-06T11:46:23;2.05;;;0.95;;
49412;SDS011;35493;50.276;9.372;2022-07-06T11:48:53;4.18;;;0.88;;
49412;SDS011;35493;50.276;9.372;2022-07-06T11:53:49;1.55;;;0.70;;
49412;SDS011;35493;50.276;9.372;2022-07-06T11:56:17;1.88;;;1.00;;
49412;SDS011;35493;50.276;9.372;2022-07-06T12:01:17;1.48;;;0.90;;
49412;SDS011;35493;50.276;9.372;2022-07-06T12:03:44;1.50;;;0.65;;
49412;SDS011;35493;50.276;9.372;2022-07-06T12:06:15;1.65;;;0.57;;
49412;SDS011;35493;50.276;9.372;2022-07-06T12:08:44;1.10;;;0.57;;
49412;SDS011;35493;50.276;9.372;2022-07-06T12:11:22;1.80;;;0.70;;
49412;SDS011;35493;50.276;9.372;2022-07-06T12:13:52;3.58;;;0.88;;
49412;SDS011;35493;50.276;9.372;2022-07-06T12:16:22;2.77;;;0.70;;
49412;SDS011;35493;50.276;9.372;2022-07-06T12:18:55;1.77;;;0.60;;
49412;SDS011;35493;50.276;9.372;2022-07-06T12:21:22;1.05;;;0.60;;
49412;SDS011;35493;50.276;9.372;2022-07-06T12:23:50;2.00;;;0.65;;
49412;SDS011;35493;50.276;9.372;2022-07-06T12:26:19;1.13;;;0.57;;
49412;SDS011;35493;50.276;9.372;2022-07-06T12:28:58;0.88;;;0.70;;
49412;SDS011;35493;50.276;9.372;2022-07-06T12:31:34;1.67;;;0.88;;
49412;SDS011;35493;50.276;9.372;2022-07-06T12:34:02;2.28;;;0.65;;
49412;SDS011;35493;50.276;9.372;2022-07-06T12:36:30;1.55;;;0.70;;
49412;SDS011;35493;50.276;9.372;2022-07-06T12:38:58;3.13;;;0.90;;
49412;SDS011;35493;50.276;9.372;2022-07-06T12:41:28;1.23;;;0.70;;
49412;SDS011;35493;50.276;9.372;2022-07-06T12:44:01;2.42;;;0.63;;
49412;SDS011;35493;50.276;9.372;2022-07-06T12:46:30;2.42;;;0.70;;
49412;SDS011;35493;50.276;9.372;2022-07-06T12:49:00;0.70;;;0.50;;
49412;SDS011;35493;50.276;9.372;2022-07-06T12:51:28;4.88;;;0.90;;
49412;SDS011;35493;50.276;9.372;2022-07-06T12:54:13;1.73;;;0.70;;
49412;SDS011;35493;50.276;9.372;2022-07-06T12:59:29;1.10;;;0.63;;
49412;SDS011;35493;50.276;9.372;2022-07-06T13:01:57;1.45;;;0.60;;
49412;SDS011;35493;50.276;9.372;2022-07-06T13:04:26;3.00;;;0.70;;
49412;SDS011;35493;50.276;9.372;2022-07-06T13:06:55;1.65;;;0.80;;
49412;SDS011;35493;50.276;9.372;2022-07-06T13:09:22;1.33;;;0.77;;
49412;SDS011;35493;50.276;9.372;2022-07-06T13:11:49;0.80;;;0.60;;
49412;SDS011;35493;50.276;9.372;2022-07-06T13:14:17;1.55;;;0.68;;
49412;SDS011;35493;50.276;9.372;2022-07-06T13:16:45;4.03;;;1.10;;
49412;SDS011;35493;50.276;9.372;2022-07-06T13:19:13;1.40;;;0.90;;
49412;SDS011;35493;50.276;9.372;2022-07-06T13:21:41;2.83;;;0.98;;
49412;SDS011;35493;50.276;9.372;2022-07-06T13:24:09;1.73;;;1.02;;
49412;SDS011;35493;50.276;9.372;2022-07-06T13:26:36;3.13;;;1.48;;
49412;SDS011;35493;50.276;9.372;2022-07-06T13:29:03;2.85;;;1.25;;
49412;SDS011;35493;50.276;9.372;2022-07-06T13:31:31;3.28;;;0.98;;
49412;SDS011;35493;50.276;9.372;2022-07-06T13:33:58;1.75;;;0.88;;
49412;SDS011;35493;50.276;9.372;2022-07-06T13:36:24;1.58;;;0.80;;
49412;SDS011;35493;50.276;9.372;2022-07-06T13:38:53;1.25;;;0.88;;
49412;SDS011;35493;50.276;9.372;2022-07-06T13:41:20;1.10;;;0.65;;
49412;SDS011;35493;50.276;9.372;2022-07-06T13:43:47;2.00;;;0.90;;
49412;SDS011;35493;50.276;9.372;2022-07-06T13:46:13;1.40;;;0.70;;
49412;SDS011;35493;50.276;9.372;2022-07-06T13:48:41;2.35;;;0.70;;
49412;SDS011;35493;50.276;9.372;2022-07-06T13:51:08;0.80;;;0.68;;
49412;SDS011;35493;50.276;9.372;2022-07-06T13:53:35;3.72;;;0.60;;
49412;SDS011;35493;50.276;9.372;2022-07-06T13:56:05;1.63;;;0.75;;
49412;SDS011;35493;50.276;9.372;2022-07-06T13:58:33;1.38;;;0.90;;
49412;SDS011;35493;50.276;9.372;2022-07-06T14:01:00;3.80;;;1.33;;
49412;SDS011;35493;50.276;9.372;2022-07-06T14:03:27;3.20;;;1.30;;
49412;SDS011;35493;50.276;9.372;2022-07-06T14:05:55;3.92;;;1.00;;
49412;SDS011;35493;50.276;9.372;2022-07-06T14:08:23;2.90;;;1.30;;
49412;SDS011;35493;50.276;9.372;2022-07-06T14:10:50;1.30;;;0.80;;
49412;SDS011;35493;50.276;9.372;2022-07-06T14:13:19;1.30;;;0.70;;
49412;SDS011;35493;50.276;9.372;2022-07-06T14:15:45;5.15;;;1.00;;
49412;SDS011;35493;50.276;9.372;2022-07-06T14:18:12;2.92;;;0.80;;
49412;SDS011;35493;50.276;9.372;2022-07-06T14:20:42;1.20;;;0.60;;
49412;SDS011;35493;50.276;9.372;2022-07-06T14:23:09;2.05;;;0.73;;
49412;SDS011;35493;50.276;9.372;2022-07-06T14:25:37;3.63;;;0.90;;
49412;SDS011;35493;50.276;9.372;2022-07-06T14:28:04;2.75;;;1.00;;
49412;SDS011;35493;50.276;9.372;2022-07-06T14:30:33;4.35;;;1.27;;
49412;SDS011;35493;50.276;9.372;2022-07-06T14:33:02;1.25;;;0.70;;
49412;SDS011;35493;50.276;9.372;2022-07-06T14:35:32;1.08;;;0.75;;
49412;SDS011;35493;50.276;9.372;2022-07-06T14:38:00;4.75;;;1.10;;
49412;SDS011;35493;50.276;9.372;2022-07-06T14:40:28;3.40;;;0.80;;
49412;SDS011;35493;50.276;9.372;2022-07-06T14:42:55;2.80;;;0.80;;
49412;SDS011;35493;50.276;9.372;2022-07-06T14:45:22;3.13;;;0.75;;
49412;SDS011;35493;50.276;9.372;2022-07-06T14:47:50;2.30;;;0.70;;
49412;SDS011;35493;50.276;9.372;2022-07-06T14:50:17;1.95;;;0.60;;
49412;SDS011;35493;50.276;9.372;2022-07-06T14:52:45;1.20;;;0.68;;
49412;SDS011;35493;50.276;9.372;2022-07-06T14:55:12;1.80;;;0.75;;
49412;SDS011;35493;50.276;9.372;2022-07-06T14:57:39;2.33;;;0.63;;
49412;SDS011;35493;50.276;9.372;2022-07-06T15:00:07;1.65;;;0.60;;
49412;SDS011;35493;50.276;9.372;2022-07-06T15:02:35;2.65;;;0.60;;
49412;SDS011;35493;50.276;9.372;2022-07-06T15:05:04;0.68;;;0.40;;
49412;SDS011;35493;50.276;9.372;2022-07-06T15:07:31;1.02;;;0.60;;
49412;SDS011;35493;50.276;9.372;2022-07-06T15:09:58;0.98;;;0.70;;
49412;SDS011;35493;50.276;9.372;2022-07-06T15:12:26;0.68;;;0.45;;
49412;SDS011;35493;50.276;9.372;2022-07-06T15:14:53;2.53;;;0.60;;